sensor_id;sensor_type;location;lat;lon;timestamp;pressure;altitude;pressure_sealevel;temperature;humidity
27958;BME280;15295;42.658;23.374;2023-06-04T00:02:05;94769.31;;;21.41;58.32
27958;BME280;15295;42.658;23.374;2023-06-04T00:04:40;94759.75;;;21.42;57.73
27958;BME280;15295;42.658;23.374;2023-06-04T00:07:08;94763.28;;;21.34;57.87
27958;BME280;15295;42.658;23.374;2023-06-04T00:09:36;94748.59;;;21.24;57.93
27958;BME280;15295;42.658;23.374;2023-06-04T00:12:02;94775.47;;;21.45;57.71
27958;BME280;15295;42.658;23.374;2023-06-04T00:14:29;94770.56;;;21.40;58.37
27958;BME280;15295;42.658;23.374;2023-06-04T00:16:54;94743.34;;;21.17;58.23
27958;BME280;15295;42.658;23.374;2023-06-04T00:19:25;94760.34;;;21.28;58.08
27958;BME280;15295;42.658;23.374;2023-06-04T00:21:51;94774.88;;;21.41;58.25
27958;BME280;15295;42.658;23.374;2023-06-04T00:24:16;94761.56;;;21.36;58.15
27958;BME280;15295;42.658;23.374;2023-06-04T00:26:46;94767.78;;;21.40;58.12
27958;BME280;15295;42.658;23.374;2023-06-04T00:29:14;94769.63;;;21.43;58.46
27958;BME280;15295;42.658;23.374;2023-06-04T00:31:41;94752.91;;;21.34;57.98
27958;BME280;15295;42.658;23.374;2023-06-04T00:34:07;94752.16;;;21.34;58.38
27958;BME280;15295;42.658;23.374;2023-06-04T00:36:33;94723.28;;;21.22;57.97
27958;BME280;15295;42.658;23.374;2023-06-04T00:38:59;94744.28;;;21.41;58.26
27958;BME280;15295;42.658;23.374;2023-06-04T00:41:28;94732.22;;;21.26;58.40
27958;BME280;15295;42.658;23.374;2023-06-04T00:44:01;94714.47;;;21.06;59.29
27958;BME280;15295;42.658;23.374;2023-06-04T00:46:57;94750.47;;;21.27;59.30
27958;BME280;15295;42.658;23.374;2023-06-04T00:49:26;94752.47;;;21.36;59.58
27958;BME280;15295;42.658;23.374;2023-06-04T00:52:04;94728.38;;;21.15;59.69
27958;BME280;15295;42.658;23.374;2023-06-04T00:54:42;94754.16;;;21.24;60.34
27958;BME280;15295;42.658;23.374;2023-06-04T00:57:29;94726.19;;;21.10;60.72
27958;BME280;15295;42.658;23.374;2023-06-04T01:00:01;94757.53;;;21.19;61.37
27958;BME280;15295;42.658;23.374;2023-06-04T01:02:31;94754.44;;;21.17;61.66
27958;BME280;15295;42.658;23.374;2023-06-04T01:05:12;94758.00;;;21.18;61.56
27958;BME280;15295;42.658;23.374;2023-06-04T01:07:41;94747.81;;;21.06;61.84
27958;BME280;15295;42.658;23.374;2023-06-04T01:10:15;94732.78;;;20.94;62.05
27958;BME280;15295;42.658;23.374;2023-06-04T01:12:46;94763.09;;;21.10;62.30
27958;BME280;15295;42.658;23.374;2023-06-04T01:15:14;94743.16;;;21.03;62.28
27958;BME280;15295;42.658;23.374;2023-06-04T01:17:40;94760.94;;;21.14;62.58
27958;BME280;15295;42.658;23.374;2023-06-04T01:20:29;94752.59;;;21.14;62.36
27958;BME280;15295;42.658;23.374;2023-06-04T01:26:04;94751.66;;;21.17;62.50
27958;BME280;15295;42.658;23.374;2023-06-04T01:28:33;94765.28;;;21.24;62.04
27958;BME280;15295;42.658;23.374;2023-06-04T01:30:59;94747.81;;;21.06;61.60
27958;BME280;15295;42.658;23.374;2023-06-04T01:33:37;94751.94;;;21.01;61.28
27958;BME280;15295;42.658;23.374;2023-06-04T01:36:03;94763.53;;;21.09;60.93
27958;BME280;15295;42.658;23.374;2023-06-04T01:38:29;94747.59;;;20.91;61.16
27958;BME280;15295;42.658;23.374;2023-06-04T01:40:56;94780.38;;;21.05;60.44
27958;BME280;15295;42.658;23.374;2023-06-04T01:43:43;94765.31;;;20.94;60.53
27958;BME280;15295;42.658;23.374;2023-06-04T01:46:09;94765.03;;;21.01;59.94
27958;BME280;15295;42.658;23.374;2023-06-04T01:48:36;94750.34;;;20.82;59.89
27958;BME280;15295;42.658;23.374;2023-06-04T01:51:13;94756.53;;;20.86;60.03
27958;BME280;15295;42.658;23.374;2023-06-04T01:53:41;94764.41;;;20.88;59.64
27958;BME280;15295;42.658;23.374;2023-06-04T01:56:08;94774.13;;;20.92;59.89
27958;BME280;15295;42.658;23.374;2023-06-04T01:58:34;94782.66;;;20.98;59.67
27958;BME280;15295;42.658;23.374;2023-06-04T02:01:08;94788.97;;;20.98;59.85
27958;BME280;15295;42.658;23.374;2023-06-04T02:03:46;94757.56;;;20.70;60.03
27958;BME280;15295;42.658;23.374;2023-06-04T02:06:19;94766.69;;;20.80;59.82
27958;BME280;15295;42.658;23.374;2023-06-04T02:08:45;94754.63;;;20.65;60.31
27958;BME280;15295;42.658;23.374;2023-06-04T02:11:11;94774.41;;;20.76;60.09
27958;BME280;15295;42.658;23.374;2023-06-04T02:13:37;94731.38;;;20.41;60.66
27958;BME280;15295;42.658;23.374;2023-06-04T02:16:03;94776.97;;;20.61;60.82
27958;BME280;15295;42.658;23.374;2023-06-04T02:19:04;94745.22;;;20.32;61.37
27958;BME280;15295;42.658;23.374;2023-06-04T02:21:31;94763.78;;;20.44;61.65
27958;BME280;15295;42.658;23.374;2023-06-04T02:24:10;94765.31;;;20.45;61.53
27958;BME280;15295;42.658;23.374;2023-06-04T02:26:36;94786.84;;;20.62;61.56
27958;BME280;15295;42.658;23.374;2023-06-04T02:29:01;94790.88;;;20.61;61.53
27958;BME280;15295;42.658;23.374;2023-06-04T02:31:30;94802.44;;;20.69;61.90
27958;BME280;15295;42.658;23.374;2023-06-04T02:34:04;94773.97;;;20.47;62.13
27958;BME280;15295;42.658;23.374;2023-06-04T02:36:34;94767.16;;;20.39;62.02
27958;BME280;15295;42.658;23.374;2023-06-04T02:38:59;94792.25;;;20.66;61.42
27958;BME280;15295;42.658;23.374;2023-06-04T02:41:28;94815.44;;;20.81;61.66
27958;BME280;15295;42.658;23.374;2023-06-04T02:43:58;94775.72;;;20.62;61.33
27958;BME280;15295;42.658;23.374;2023-06-04T02:46:23;94815.66;;;20.87;61.47
27958;BME280;15295;42.658;23.374;2023-06-04T02:48:53;94804.81;;;20.80;61.34
27958;BME280;15295;42.658;23.374;2023-06-04T02:51:18;94818.06;;;20.75;61.65
27958;BME280;15295;42.658;23.374;2023-06-04T02:53:49;94821.47;;;20.80;61.75
27958;BME280;15295;42.658;23.374;2023-06-04T02:56:15;94804.75;;;20.70;61.60
27958;BME280;15295;42.658;23.374;2023-06-04T02:58:56;94825.66;;;20.84;61.99
27958;BME280;15295;42.658;23.374;2023-06-04T03:01:22;94824.09;;;20.83;61.65
27958;BME280;15295;42.658;23.374;2023-06-04T03:03:49;94819.06;;;20.91;61.36
27958;BME280;15295;42.658;23.374;2023-06-04T03:06:16;94810.81;;;20.78;61.64
27958;BME280;15295;42.658;23.374;2023-06-04T03:08:45;94830.16;;;20.91;61.57
27958;BME280;15295;42.658;23.374;2023-06-04T03:11:13;94817.50;;;20.90;61.73
27958;BME280;15295;42.658;23.374;2023-06-04T03:13:44;94829.69;;;20.92;61.40
27958;BME280;15295;42.658;23.374;2023-06-04T03:16:17;94817.19;;;20.88;61.02
27958;BME280;15295;42.658;23.374;2023-06-04T03:18:47;94836.06;;;21.02;60.96
27958;BME280;15295;42.658;23.374;2023-06-04T03:21:29;94842.38;;;21.02;61.39
27958;BME280;15295;42.658;23.374;2023-06-04T03:23:56;94837.63;;;21.03;61.17
27958;BME280;15295;42.658;23.374;2023-06-04T03:26:21;94824.63;;;21.00;61.14
27958;BME280;15295;42.658;23.374;2023-06-04T03:28:47;94805.94;;;20.91;60.88
27958;BME280;15295;42.658;23.374;2023-06-04T03:31:25;94830.38;;;21.05;60.62
27958;BME280;15295;42.658;23.374;2023-06-04T03:34:14;94802.81;;;20.80;60.91
27958;BME280;15295;42.658;23.374;2023-06-04T03:41:47;94854.34;;;21.12;61.06
27958;BME280;15295;42.658;23.374;2023-06-04T03:44:20;94842.28;;;21.06;60.54
27958;BME280;15295;42.658;23.374;2023-06-04T03:47:06;94827.31;;;21.03;60.10
27958;BME280;15295;42.658;23.374;2023-06-04T03:49:37;94852.34;;;21.21;60.24
27958;BME280;15295;42.658;23.374;2023-06-04T03:52:11;94868.28;;;21.30;60.38
27958;BME280;15295;42.658;23.374;2023-06-04T03:54:59;94846.16;;;21.08;60.62
27958;BME280;15295;42.658;23.374;2023-06-04T03:57:29;94835.16;;;21.05;60.55
27958;BME280;15295;42.658;23.374;2023-06-04T03:59:55;94844.00;;;21.21;60.01
27958;BME280;15295;42.658;23.374;2023-06-04T04:02:21;94852.97;;;21.16;60.24
27958;BME280;15295;42.658;23.374;2023-06-04T04:04:53;94866.13;;;21.25;60.43
27958;BME280;15295;42.658;23.374;2023-06-04T04:07:47;94859.75;;;21.15;60.02
27958;BME280;15295;42.658;23.374;2023-06-04T04:10:34;94868.91;;;21.25;60.51
27958;BME280;15295;42.658;23.374;2023-06-04T04:13:03;94868.25;;;21.12;60.41
27958;BME280;15295;42.658;23.374;2023-06-04T04:15:49;94852.88;;;20.98;60.82
27958;BME280;15295;42.658;23.374;2023-06-04T04:18:18;94831.84;;;20.88;61.00
27958;BME280;15295;42.658;23.374;2023-06-04T04:20:48;94830.13;;;20.82;61.14
27958;BME280;15295;42.658;23.374;2023-06-04T04:23:15;94866.50;;;21.05;60.88
27958;BME280;15295;42.658;23.374;2023-06-04T04:25:48;94866.97;;;21.04;60.94
27958;BME280;15295;42.658;23.374;2023-06-04T04:31:02;94878.72;;;21.08;61.30
27958;BME280;15295;42.658;23.374;2023-06-04T04:33:30;94864.28;;;21.00;61.30
27958;BME280;15295;42.658;23.374;2023-06-04T04:35:58;94873.16;;;21.08;61.23
27958;BME280;15295;42.658;23.374;2023-06-04T04:38:57;94886.00;;;21.14;61.11
27958;BME280;15295;42.658;23.374;2023-06-04T04:41:37;94854.56;;;20.96;61.36
27958;BME280;15295;42.658;23.374;2023-06-04T04:44:05;94858.28;;;21.02;61.54
27958;BME280;15295;42.658;23.374;2023-06-04T04:46:30;94857.97;;;21.00;61.09
27958;BME280;15295;42.658;23.374;2023-06-04T04:49:08;94846.88;;;21.00;61.14
27958;BME280;15295;42.658;23.374;2023-06-04T04:51:36;94864.94;;;21.04;61.07
27958;BME280;15295;42.658;23.374;2023-06-04T04:54:03;94864.13;;;20.95;61.04
27958;BME280;15295;42.658;23.374;2023-06-04T04:56:34;94859.19;;;20.99;60.97
27958;BME280;15295;42.658;23.374;2023-06-04T04:59:01;94859.16;;;20.90;60.56
27958;BME280;15295;42.658;23.374;2023-06-04T05:01:32;94859.66;;;20.97;60.35
27958;BME280;15295;42.658;23.374;2023-06-04T05:04:02;94860.97;;;21.05;60.50
27958;BME280;15295;42.658;23.374;2023-06-04T05:06:28;94864.69;;;21.11;60.41
27958;BME280;15295;42.658;23.374;2023-06-04T05:08:59;94848.88;;;20.99;59.44
27958;BME280;15295;42.658;23.374;2023-06-04T05:11:25;94886.38;;;21.34;59.51
27958;BME280;15295;42.658;23.374;2023-06-04T05:14:19;94868.88;;;21.16;59.06
27958;BME280;15295;42.658;23.374;2023-06-04T05:16:46;94860.81;;;21.09;58.82
27958;BME280;15295;42.658;23.374;2023-06-04T05:19:42;94860.69;;;21.12;59.04
27958;BME280;15295;42.658;23.374;2023-06-04T05:22:37;94862.41;;;21.19;59.53
27958;BME280;15295;42.658;23.374;2023-06-04T05:25:37;94902.50;;;21.67;59.30
27958;BME280;15295;42.658;23.374;2023-06-04T05:28:19;94877.50;;;21.76;58.85
27958;BME280;15295;42.658;23.374;2023-06-04T05:30:49;94843.16;;;21.51;57.72
27958;BME280;15295;42.658;23.374;2023-06-04T05:33:17;94888.34;;;21.83;57.06
27958;BME280;15295;42.658;23.374;2023-06-04T05:35:47;94907.84;;;22.10;57.14
27958;BME280;15295;42.658;23.374;2023-06-04T05:40:46;94903.50;;;22.27;55.38
27958;BME280;15295;42.658;23.374;2023-06-04T05:43:12;94886.34;;;22.10;56.05
27958;BME280;15295;42.658;23.374;2023-06-04T05:45:39;94903.03;;;22.28;55.56
27958;BME280;15295;42.658;23.374;2023-06-04T05:48:16;94897.03;;;22.21;54.43
27958;BME280;15295;42.658;23.374;2023-06-04T05:50:52;94912.16;;;22.29;54.64
27958;BME280;15295;42.658;23.374;2023-06-04T05:53:17;94907.84;;;22.28;54.15
27958;BME280;15295;42.658;23.374;2023-06-04T05:55:53;94922.22;;;22.36;54.61
27958;BME280;15295;42.658;23.374;2023-06-04T05:58:23;94885.59;;;21.92;54.95
27958;BME280;15295;42.658;23.374;2023-06-04T06:00:53;94899.19;;;21.99;55.60
27958;BME280;15295;42.658;23.374;2023-06-04T06:06:45;94877.53;;;22.12;55.31
27958;BME280;15295;42.658;23.374;2023-06-04T06:09:14;94922.38;;;22.59;54.55
27958;BME280;15295;42.658;23.374;2023-06-04T06:11:41;94941.53;;;22.75;54.76
27958;BME280;15295;42.658;23.374;2023-06-04T06:14:07;94935.97;;;22.84;54.47
27958;BME280;15295;42.658;23.374;2023-06-04T06:16:32;94945.53;;;23.01;52.91
27958;BME280;15295;42.658;23.374;2023-06-04T06:18:58;94945.81;;;23.13;52.46
27958;BME280;15295;42.658;23.374;2023-06-04T06:21:24;94940.03;;;23.34;51.41
27958;BME280;15295;42.658;23.374;2023-06-04T06:23:51;94943.22;;;23.42;51.40
27958;BME280;15295;42.658;23.374;2023-06-04T06:26:16;94932.53;;;23.49;50.66
27958;BME280;15295;42.658;23.374;2023-06-04T06:28:42;94939.28;;;23.57;50.24
27958;BME280;15295;42.658;23.374;2023-06-04T06:31:08;94935.00;;;23.47;49.52
27958;BME280;15295;42.658;23.374;2023-06-04T06:33:34;94931.19;;;23.68;49.18
27958;BME280;15295;42.658;23.374;2023-06-04T06:35:59;94942.16;;;23.72;49.01
27958;BME280;15295;42.658;23.374;2023-06-04T06:38:27;94945.19;;;23.83;49.11
27958;BME280;15295;42.658;23.374;2023-06-04T06:40:53;94944.91;;;23.81;49.33
27958;BME280;15295;42.658;23.374;2023-06-04T06:43:18;94947.69;;;23.81;48.65
27958;BME280;15295;42.658;23.374;2023-06-04T06:45:44;94950.53;;;23.72;49.03
27958;BME280;15295;42.658;23.374;2023-06-04T06:48:09;94944.34;;;23.68;49.15
27958;BME280;15295;42.658;23.374;2023-06-04T06:50:36;94947.09;;;23.77;48.99
27958;BME280;15295;42.658;23.374;2023-06-04T06:53:02;94955.13;;;23.84;49.79
27958;BME280;15295;42.658;23.374;2023-06-04T06:55:28;94956.09;;;23.72;49.14
27958;BME280;15295;42.658;23.374;2023-06-04T06:57:53;94942.94;;;23.72;50.04
27958;BME280;15295;42.658;23.374;2023-06-04T07:00:31;94959.09;;;23.92;49.36
27958;BME280;15295;42.658;23.374;2023-06-04T07:02:56;94962.19;;;23.94;48.72
27958;BME280;15295;42.658;23.374;2023-06-04T07:05:21;94953.44;;;24.10;49.36
27958;BME280;15295;42.658;23.374;2023-06-04T07:07:47;94958.00;;;24.22;47.76
27958;BME280;15295;42.658;23.374;2023-06-04T07:10:13;94954.69;;;24.09;47.45
27958;BME280;15295;42.658;23.374;2023-06-04T07:12:39;94968.34;;;24.07;47.77
27958;BME280;15295;42.658;23.374;2023-06-04T07:15:06;94961.22;;;24.06;48.04
27958;BME280;15295;42.658;23.374;2023-06-04T07:17:31;94963.63;;;23.90;48.28
27958;BME280;15295;42.658;23.374;2023-06-04T07:19:57;94972.47;;;23.88;48.39
27958;BME280;15295;42.658;23.374;2023-06-04T07:22:23;94987.00;;;23.68;48.99
27958;BME280;15295;42.658;23.374;2023-06-04T07:24:49;94980.00;;;23.73;48.91
27958;BME280;15295;42.658;23.374;2023-06-04T07:27:15;94968.25;;;23.69;49.10
27958;BME280;15295;42.658;23.374;2023-06-04T07:29:43;94978.28;;;23.75;49.45
27958;BME280;15295;42.658;23.374;2023-06-04T07:32:18;94983.91;;;23.66;50.10
27958;BME280;15295;42.658;23.374;2023-06-04T07:34:44;94975.16;;;23.50;50.55
27958;BME280;15295;42.658;23.374;2023-06-04T07:37:10;94985.31;;;23.62;50.56
27958;BME280;15295;42.658;23.374;2023-06-04T07:39:35;94974.19;;;23.53;50.27
27958;BME280;15295;42.658;23.374;2023-06-04T07:42:01;94973.00;;;23.45;50.59
27958;BME280;15295;42.658;23.374;2023-06-04T07:44:27;94991.22;;;23.55;50.74
27958;BME280;15295;42.658;23.374;2023-06-04T07:46:52;94985.81;;;23.51;50.96
27958;BME280;15295;42.658;23.374;2023-06-04T07:49:17;94986.38;;;23.64;50.96
27958;BME280;15295;42.658;23.374;2023-06-04T07:51:43;94987.78;;;23.69;51.19
27958;BME280;15295;42.658;23.374;2023-06-04T07:54:08;94994.81;;;23.88;50.83
27958;BME280;15295;42.658;23.374;2023-06-04T07:56:34;94995.59;;;23.89;51.05
27958;BME280;15295;42.658;23.374;2023-06-04T07:59:00;95002.94;;;24.01;50.85
27958;BME280;15295;42.658;23.374;2023-06-04T08:01:51;94995.06;;;23.99;50.37
27958;BME280;15295;42.658;23.374;2023-06-04T08:04:19;95008.34;;;24.13;50.82
27958;BME280;15295;42.658;23.374;2023-06-04T08:06:44;94988.50;;;24.11;50.88
27958;BME280;15295;42.658;23.374;2023-06-04T08:09:10;94998.28;;;24.07;50.58
27958;BME280;15295;42.658;23.374;2023-06-04T08:11:42;95003.44;;;23.99;50.73
27958;BME280;15295;42.658;23.374;2023-06-04T08:14:10;94991.75;;;24.10;50.63
27958;BME280;15295;42.658;23.374;2023-06-04T08:16:36;94989.09;;;24.15;49.85
27958;BME280;15295;42.658;23.374;2023-06-04T08:19:02;94992.72;;;24.30;49.25
27958;BME280;15295;42.658;23.374;2023-06-04T08:21:28;94987.91;;;24.31;49.46
27958;BME280;15295;42.658;23.374;2023-06-04T08:23:54;94991.16;;;24.29;50.10
27958;BME280;15295;42.658;23.374;2023-06-04T08:26:19;94974.56;;;24.26;49.31
27958;BME280;15295;42.658;23.374;2023-06-04T08:28:48;94968.41;;;24.22;49.72
27958;BME280;15295;42.658;23.374;2023-06-04T08:31:14;95000.50;;;24.26;49.82
27958;BME280;15295;42.658;23.374;2023-06-04T08:33:40;94986.59;;;24.17;49.95
27958;BME280;15295;42.658;23.374;2023-06-04T08:36:14;95009.75;;;24.32;49.81
27958;BME280;15295;42.658;23.374;2023-06-04T08:38:44;95013.09;;;24.22;49.64
27958;BME280;15295;42.658;23.374;2023-06-04T08:41:29;95010.31;;;24.22;50.01
27958;BME280;15295;42.658;23.374;2023-06-04T08:44:02;95012.84;;;24.34;49.42
27958;BME280;15295;42.658;23.374;2023-06-04T08:46:32;95010.53;;;24.33;49.44
27958;BME280;15295;42.658;23.374;2023-06-04T08:49:00;95037.16;;;24.19;48.38
27958;BME280;15295;42.658;23.374;2023-06-04T08:51:32;95026.41;;;23.94;49.61
27958;BME280;15295;42.658;23.374;2023-06-04T08:54:01;95026.88;;;24.25;48.98
27958;BME280;15295;42.658;23.374;2023-06-04T08:56:26;95024.06;;;24.25;49.50
27958;BME280;15295;42.658;23.374;2023-06-04T08:58:56;95032.22;;;24.14;48.67
27958;BME280;15295;42.658;23.374;2023-06-04T09:01:26;95021.47;;;24.22;48.10
27958;BME280;15295;42.658;23.374;2023-06-04T09:03:52;95018.50;;;24.25;47.35
27958;BME280;15295;42.658;23.374;2023-06-04T09:06:17;95021.13;;;24.29;47.88
27958;BME280;15295;42.658;23.374;2023-06-04T09:08:44;95040.00;;;24.34;46.84
27958;BME280;15295;42.658;23.374;2023-06-04T09:11:13;95033.66;;;24.33;46.74
27958;BME280;15295;42.658;23.374;2023-06-04T09:13:39;95044.06;;;24.33;46.98
27958;BME280;15295;42.658;23.374;2023-06-04T09:16:05;95028.81;;;24.34;46.34
27958;BME280;15295;42.658;23.374;2023-06-04T09:18:31;95049.66;;;24.33;46.21
27958;BME280;15295;42.658;23.374;2023-06-04T09:21:04;95045.88;;;24.36;46.36
27958;BME280;15295;42.658;23.374;2023-06-04T09:23:31;95041.50;;;24.44;46.16
27958;BME280;15295;42.658;23.374;2023-06-04T09:26:05;95027.00;;;24.07;46.38
27958;BME280;15295;42.658;23.374;2023-06-04T09:28:31;95029.13;;;24.12;46.27
27958;BME280;15295;42.658;23.374;2023-06-04T09:30:57;95029.13;;;24.12;46.64
27958;BME280;15295;42.658;23.374;2023-06-04T09:33:24;95021.22;;;24.11;46.41
27958;BME280;15295;42.658;23.374;2023-06-04T09:35:58;95036.56;;;24.39;46.01
27958;BME280;15295;42.658;23.374;2023-06-04T09:38:33;95052.25;;;24.60;45.65
27958;BME280;15295;42.658;23.374;2023-06-04T09:40:59;95028.78;;;24.43;46.13
27958;BME280;15295;42.658;23.374;2023-06-04T09:43:26;95040.28;;;24.60;46.02
27958;BME280;15295;42.658;23.374;2023-06-04T09:45:51;95044.06;;;24.80;45.33
27958;BME280;15295;42.658;23.374;2023-06-04T09:48:21;95030.75;;;24.90;45.40
27958;BME280;15295;42.658;23.374;2023-06-04T09:50:47;95032.72;;;25.13;45.18
27958;BME280;15295;42.658;23.374;2023-06-04T09:53:22;95032.34;;;25.20;44.49
27958;BME280;15295;42.658;23.374;2023-06-04T09:55:57;95025.81;;;25.08;44.57
27958;BME280;15295;42.658;23.374;2023-06-04T09:58:25;95026.56;;;25.09;44.30
27958;BME280;15295;42.658;23.374;2023-06-04T10:00:52;95035.63;;;25.04;44.59
27958;BME280;15295;42.658;23.374;2023-06-04T10:03:33;95032.16;;;25.23;44.39
27958;BME280;15295;42.658;23.374;2023-06-04T10:06:01;95032.78;;;25.42;43.82
27958;BME280;15295;42.658;23.374;2023-06-04T10:08:29;95025.91;;;25.72;43.79
27958;BME280;15295;42.658;23.374;2023-06-04T10:10:56;95025.69;;;25.90;43.23
27958;BME280;15295;42.658;23.374;2023-06-04T10:13:24;95028.16;;;26.03;43.00
27958;BME280;15295;42.658;23.374;2023-06-04T10:15:51;95020.19;;;25.96;43.03
27958;BME280;15295;42.658;23.374;2023-06-04T10:18:18;95011.06;;;26.01;42.64
27958;BME280;15295;42.658;23.374;2023-06-04T10:20:44;95021.34;;;26.24;42.72
27958;BME280;15295;42.658;23.374;2023-06-04T10:23:10;95015.38;;;26.51;42.31
27958;BME280;15295;42.658;23.374;2023-06-04T10:25:36;95022.03;;;26.74;41.32
27958;BME280;15295;42.658;23.374;2023-06-04T10:28:03;95025.47;;;26.84;41.14
27958;BME280;15295;42.658;23.374;2023-06-04T10:30:32;95023.50;;;26.90;41.22
27958;BME280;15295;42.658;23.374;2023-06-04T10:32:58;95020.19;;;26.91;40.31
27958;BME280;15295;42.658;23.374;2023-06-04T10:35:36;95023.88;;;26.77;41.12
27958;BME280;15295;42.658;23.374;2023-06-04T10:38:09;95029.41;;;26.92;40.90
27958;BME280;15295;42.658;23.374;2023-06-04T10:40:49;95028.47;;;27.00;40.88
27958;BME280;15295;42.658;23.374;2023-06-04T10:43:29;95024.59;;;27.18;40.18
27958;BME280;15295;42.658;23.374;2023-06-04T10:45:55;95020.47;;;27.13;40.85
27958;BME280;15295;42.658;23.374;2023-06-04T10:48:21;95016.84;;;27.33;40.43
27958;BME280;15295;42.658;23.374;2023-06-04T10:50:52;95015.41;;;27.43;39.91
27958;BME280;15295;42.658;23.374;2023-06-04T10:53:18;95023.88;;;27.48;39.78
27958;BME280;15295;42.658;23.374;2023-06-04T10:55:49;95020.28;;;27.48;39.74
27958;BME280;15295;42.658;23.374;2023-06-04T10:58:14;95012.25;;;27.61;39.62
27958;BME280;15295;42.658;23.374;2023-06-04T11:00:42;95014.56;;;27.94;39.11
27958;BME280;15295;42.658;23.374;2023-06-04T11:03:11;95019.56;;;28.10;38.95
27958;BME280;15295;42.658;23.374;2023-06-04T11:05:54;95021.94;;;27.91;38.27
27958;BME280;15295;42.658;23.374;2023-06-04T11:08:28;95007.84;;;27.86;38.87
27958;BME280;15295;42.658;23.374;2023-06-04T11:10:54;95009.66;;;27.58;39.21
27958;BME280;15295;42.658;23.374;2023-06-04T11:13:24;95007.94;;;27.66;39.19
27958;BME280;15295;42.658;23.374;2023-06-04T11:16:14;95010.94;;;27.88;39.17
27958;BME280;15295;42.658;23.374;2023-06-04T11:18:41;95010.94;;;27.88;39.61
27958;BME280;15295;42.658;23.374;2023-06-04T11:21:06;95016.66;;;27.99;38.99
27958;BME280;15295;42.658;23.374;2023-06-04T11:23:33;95012.25;;;27.92;38.87
27958;BME280;15295;42.658;23.374;2023-06-04T11:25:58;95012.59;;;27.74;39.39
27958;BME280;15295;42.658;23.374;2023-06-04T11:28:24;95022.53;;;27.70;39.80
27958;BME280;15295;42.658;23.374;2023-06-04T11:36:03;94988.25;;;27.34;40.14
27958;BME280;15295;42.658;23.374;2023-06-04T11:38:28;95006.75;;;27.46;39.72
27958;BME280;15295;42.658;23.374;2023-06-04T11:40:58;95011.84;;;27.22;40.16
27958;BME280;15295;42.658;23.374;2023-06-04T11:43:24;95005.38;;;27.11;40.31
27958;BME280;15295;42.658;23.374;2023-06-04T11:45:54;95018.69;;;27.16;40.17
27958;BME280;15295;42.658;23.374;2023-06-04T11:48:20;95010.97;;;27.11;40.19
27958;BME280;15295;42.658;23.374;2023-06-04T11:50:46;95007.94;;;27.14;40.24
27958;BME280;15295;42.658;23.374;2023-06-04T12:21:28;94994.34;;;26.61;42.02
27958;BME280;15295;42.658;23.374;2023-06-04T12:24:08;95032.28;;;26.77;41.80
27958;BME280;15295;42.658;23.374;2023-06-04T12:27:03;95028.88;;;26.53;42.07
27958;BME280;15295;42.658;23.374;2023-06-04T12:29:29;95010.53;;;26.32;42.15
27958;BME280;15295;42.658;23.374;2023-06-04T12:32:21;95031.66;;;26.33;42.48
27958;BME280;15295;42.658;23.374;2023-06-04T12:34:52;95024.59;;;26.37;42.12
27958;BME280;15295;42.658;23.374;2023-06-04T12:37:19;95030.41;;;26.34;42.38
27958;BME280;15295;42.658;23.374;2023-06-04T12:39:48;95028.41;;;26.34;42.25
27958;BME280;15295;42.658;23.374;2023-06-04T12:42:22;95002.75;;;26.07;42.24
27958;BME280;15295;42.658;23.374;2023-06-04T12:44:50;95020.88;;;26.26;42.52
27958;BME280;15295;42.658;23.374;2023-06-04T12:47:15;95006.59;;;26.24;42.35
27958;BME280;15295;42.658;23.374;2023-06-04T12:49:42;95014.72;;;26.22;42.50
27958;BME280;15295;42.658;23.374;2023-06-04T12:52:07;95019.84;;;26.23;42.51
27958;BME280;15295;42.658;23.374;2023-06-04T12:54:33;95012.38;;;26.20;42.37
27958;BME280;15295;42.658;23.374;2023-06-04T12:57:05;95016.25;;;26.23;42.40
27958;BME280;15295;42.658;23.374;2023-06-04T12:59:31;95026.91;;;26.19;42.53
27958;BME280;15295;42.658;23.374;2023-06-04T13:01:56;95016.00;;;26.06;42.85
27958;BME280;15295;42.658;23.374;2023-06-04T13:04:23;95025.84;;;26.01;42.80
27958;BME280;15295;42.658;23.374;2023-06-04T13:06:54;95017.66;;;26.13;42.69
27958;BME280;15295;42.658;23.374;2023-06-04T13:09:24;95023.94;;;25.93;42.64
27958;BME280;15295;42.658;23.374;2023-06-04T13:11:50;95030.78;;;26.07;42.47
27958;BME280;15295;42.658;23.374;2023-06-04T13:14:16;95017.94;;;26.00;42.54
27958;BME280;15295;42.658;23.374;2023-06-04T13:16:47;95026.94;;;25.89;42.73
27958;BME280;15295;42.658;23.374;2023-06-04T13:19:14;95015.94;;;25.86;42.52
27958;BME280;15295;42.658;23.374;2023-06-04T13:21:39;95025.00;;;25.95;42.86
27958;BME280;15295;42.658;23.374;2023-06-04T13:24:05;95006.56;;;25.89;42.81
27958;BME280;15295;42.658;23.374;2023-06-04T13:26:34;95022.47;;;25.97;42.93
27958;BME280;15295;42.658;23.374;2023-06-04T13:28:59;95020.75;;;25.85;43.11
27958;BME280;15295;42.658;23.374;2023-06-04T13:31:25;95009.56;;;25.85;43.19
27958;BME280;15295;42.658;23.374;2023-06-04T13:33:50;95020.94;;;25.96;43.23
27958;BME280;15295;42.658;23.374;2023-06-04T13:36:16;95011.28;;;25.97;43.09
27958;BME280;15295;42.658;23.374;2023-06-04T13:38:41;95013.09;;;26.00;43.09
27958;BME280;15295;42.658;23.374;2023-06-04T13:41:08;95012.06;;;25.98;43.11
27958;BME280;15295;42.658;23.374;2023-06-04T13:43:33;95013.81;;;25.95;42.69
27958;BME280;15295;42.658;23.374;2023-06-04T13:45:59;95009.03;;;26.01;42.67
27958;BME280;15295;42.658;23.374;2023-06-04T13:48:31;94995.72;;;25.96;42.46
27958;BME280;15295;42.658;23.374;2023-06-04T13:50:56;94998.81;;;26.13;42.78
27958;BME280;15295;42.658;23.374;2023-06-04T13:53:21;95006.22;;;26.16;42.40
27958;BME280;15295;42.658;23.374;2023-06-04T13:55:47;95001.19;;;26.20;42.36